Latest Weather Observations for Curtin

IDW60801

Issued at 1:35 pm WST Thursday 27 November 2014 (issued every 30 minutes, with the page automatically refreshed every 10 minutes)

About weather observations | Map of weather stations | Latest weather observations for WA | Other Formats
Station Details ID: 003080 Name: CURTIN AERO Lat: -17.58 Lon: 123.83 Height: 77.5 m
Data from the previous 72 hours. | See also: Recent months at Curtin
Date/Time
WST
Temp
°C
App
Temp
°C
Dew
Point
Rel
Hum
%
Delta-T
°C
Wind Press
QNH
hPa
Press
MSL
hPa
Rain
since 9 am
mm
Dir
 
Spd
km/h
Gust
km/h
Spd
kts
Gust
kts
27/01:30pm 32.2 33.2 22.9 58 6.4 NW 22 32 12 17 1006.3 1005.7 3.0
27/01:00pm 32.5 34.4 22.0 54 7.2 NW 15 22 8 12 1006.5 1005.9 3.0
27/12:30pm 33.1 35.2 22.5 53 7.3 NW 15 24 8 13 1007.6 1007.0 3.0
27/12:00pm 33.5 37.3 23.5 55 7.0 N 9 15 5 8 1007.3 1006.7 3.0
27/11:30am 32.8 35.0 20.3 47 8.3 N 9 13 5 7 1008.1 1007.5 3.0
27/11:00am 30.0 32.0 22.9 65 4.9 NNE 17 30 9 16 1008.5 1007.9 3.0
27/10:30am 26.2 24.9 20.7 71 3.6 ENE 28 46 15 25 1009.1 1008.5 1.0
27/10:29am 26.1 24.5 20.0 69 4.0 ENE 28 46 15 25 1009.1 1008.5 0.8
27/10:25am 27.5 24.4 19.6 62 5.2 ENE 35 46 19 25 1008.9 1008.3 0.0
27/10:00am 33.5 36.4 23.2 54 7.2 NW 13 19 7 10 1008.9 1008.3 0.0
27/09:30am 33.2 36.1 23.2 55 6.9 NW 13 19 7 10 1009.2 1008.6 0.0
27/09:00am 33.0 36.1 24.2 60 6.2 NNW 15 22 8 12 1009.2 1008.6 1.6
27/08:30am 31.6 35.1 24.2 65 5.2 WNW 13 22 7 12 1009.1 1008.5 1.6
27/08:00am 31.0 34.0 24.6 68 4.5 NW 17 20 9 11 1008.9 1008.3 1.6
27/07:30am 30.3 33.7 24.7 72 3.9 NW 15 20 8 11 1008.8 1008.2 1.6
27/07:00am 29.7 34.2 25.2 77 3.2 NW 11 17 6 9 1008.7 1008.1 1.6
27/06:30am 28.4 33.0 24.8 81 2.5 NW 9 13 5 7 1008.7 1008.1 1.4
27/06:00am 27.9 33.9 24.3 81 2.5 CALM 0 0 0 0 1008.7 1008.1 1.4
27/05:30am 25.3 30.9 23.5 90 1.2 CALM 0 0 0 0 1008.3 1007.7 1.4
27/05:00am 25.0 30.3 23.1 89 1.3 CALM 0 0 0 0 1008.1 1007.5 1.4
27/04:30am 25.0 30.4 23.2 90 1.2 CALM 0 0 0 0 1007.9 1007.3 1.4
27/04:00am 25.1 30.5 23.2 89 1.3 CALM 0 0 0 0 1007.8 1007.2 1.4
27/03:30am 25.4 30.7 23.1 87 1.6 CALM 0 0 0 0 1007.6 1007.0 1.4
27/03:00am 25.9 31.2 23.0 84 2.0 CALM 0 0 0 0 1007.4 1006.8 1.4
27/02:30am 26.8 31.3 23.7 83 2.1 S 6 6 3 3 1007.2 1006.6 1.4
27/02:00am 26.7 30.7 22.8 79 2.7 ESE 6 9 3 5 1007.2 1006.6 1.4
27/01:30am 26.7 30.3 23.0 80 2.5 ESE 9 11 5 6 1007.0 1006.4 1.4
27/01:00am 25.7 30.1 23.4 87 1.6 ENE 6 9 3 5 1006.7 1006.1 1.4
27/12:30am 25.8 31.4 23.5 87 1.6 CALM 0 0 0 0 1006.4 1005.8 1.4
27/12:00am 26.5 30.8 23.6 84 2.0 WSW 7 9 4 5 1006.4 1005.8 1.4
 
Date/Time
WST
Temp
°C
App
Temp
°C
Dew
Point
Rel
Hum
%
Delta-T
°C
Wind Press
QNH
hPa
Press
MSL
hPa
Rain
since 9 am
mm
Dir
 
Spd
km/h
Gust
km/h
Spd
kts
Gust
kts
26/11:30pm 26.5 30.6 23.0 81 2.4 NW 6 7 3 4 1006.4 1005.8 1.4
26/11:00pm 26.6 30.7 22.9 80 2.5 N 6 9 3 5 1006.4 1005.8 1.4
26/10:30pm 27.0 30.6 22.4 76 3.1 N 7 9 4 5 1006.4 1005.8 1.4
26/10:00pm 26.8 31.0 23.5 82 2.3 NNW 7 11 4 6 1006.5 1005.9 1.4
26/09:30pm 27.4 32.0 23.2 78 2.9 N 4 7 2 4 1006.2 1005.6 1.4
26/09:00pm 28.1 33.0 23.0 74 3.5 N 2 6 1 3 1006.0 1005.4 1.4
26/08:30pm 28.7 32.1 22.0 67 4.5 WNW 7 13 4 7 1005.7 1005.1 1.4
26/08:00pm 28.6 31.3 21.4 65 4.8 NNE 9 11 5 6 1005.4 1004.8 1.4
26/07:30pm 29.1 32.1 21.3 62 5.2 N 7 9 4 5 1005.4 1004.8 1.4
26/07:00pm 29.2 31.4 21.2 62 5.4 NNE 11 19 6 10 1005.4 1004.8 1.4
26/06:30pm 29.0 30.6 22.2 66 4.6 NNE 17 26 9 14 1005.2 1004.6 1.4
26/06:00pm 29.2 29.7 21.9 64 4.9 NNE 22 32 12 17 1004.9 1004.3 1.4
26/05:30pm 30.4 30.3 22.3 62 5.5 NE 26 41 14 22 1004.2 1003.6 1.4
26/05:00pm 29.5 32.3 23.7 71 4.0 NE 15 20 8 11 1004.0 1003.4 1.4
26/04:30pm 29.5 30.7 21.4 61 5.4 N 17 24 9 13 1002.9 1002.2 0.8
26/04:00pm 34.3 33.9 18.8 40 10.2 NW 19 26 10 14 1002.6 1001.9 0.0
26/03:55pm 35.1 34.6 17.8 36 11.2 NW 17 24 9 13 1002.7 1002.0 0.0
26/03:30pm 40.3 38.7 16.5 25 15.4 ESE 20 28 11 15 1002.3 1001.6 0.0
26/03:00pm 40.1 36.8 16.9 25 15.2 S 30 39 16 21 1002.5 1001.8 0.0
26/02:30pm 38.9 37.5 17.1 28 14.2 E 20 32 11 17 1003.0 1002.3 0.0
26/02:00pm 40.2 38.4 17.0 25 15.2 ESE 22 33 12 18 1003.2 1002.5 0.0
26/01:30pm 41.1 40.2 17.8 26 15.4 SSE 19 44 10 24 1003.3 1002.6 0.0
26/01:00pm 39.0 38.2 17.2 28 14.2 E 17 30 9 16 1003.8 1003.2 0.0
26/12:30pm 40.5 40.8 17.9 27 14.9 SE 13 26 7 14 1004.3 1003.7 0.0
26/12:00pm 39.7 38.6 17.8 28 14.4 SE 20 30 11 16 1004.9 1004.3 0.0
26/11:30am 39.2 37.8 17.9 28 14.0 ESE 22 32 12 17 1005.6 1005.0 0.0
26/11:00am 38.3 37.0 18.2 31 13.3 SE 22 35 12 19 1006.1 1005.5 0.0
26/10:30am 38.3 37.0 18.2 31 13.2 E 22 33 12 18 1006.8 1006.2 0.0
26/10:00am 37.1 35.4 18.1 32 12.5 SE 24 37 13 20 1007.2 1006.6 0.0
26/09:30am 36.9 35.3 18.4 33 12.2 SE 24 35 13 19 1007.5 1006.9 0.0
26/09:00am 34.4 31.7 17.6 37 10.9 SE 28 43 15 23 1007.8 1007.2 0.0
26/08:46am 34.6 32.0 17.8 37 10.9 SE 28 46 15 25 1007.9 1007.3 0.0
26/08:30am 33.6 29.8 17.3 37 10.5 SSE 33 44 18 24 1008.0 1007.4 0.0
26/08:00am 32.4 28.6 17.1 40 9.8 SE 33 46 18 25 1007.9 1007.3 0.0
26/07:30am 31.8 27.5 16.9 40 9.5 SSE 35 48 19 26 1007.7 1007.1 0.0
26/07:00am 30.9 26.4 16.5 42 9.1 SSE 35 48 19 26 1007.7 1007.1 0.0
26/06:30am 30.1 25.8 15.8 42 8.9 SSE 33 44 18 24 1007.7 1007.1 0.0
26/06:00am 29.7 25.9 15.8 43 8.6 SSE 30 41 16 22 1007.9 1007.3 0.0
26/05:35am 29.1 25.6 15.6 44 8.3 SSE 28 46 15 25 1007.2 1006.6 0.0
26/05:30am 29.0 25.6 15.9 45 8.1 SSE 28 39 15 21 1007.1 1006.5 0.0
26/05:00am 28.7 26.9 15.9 45 7.9 SE 20 30 11 16 1006.6 1006.0 0.0
26/04:30am 28.4 27.2 16.0 47 7.7 SSE 17 22 9 12 1006.2 1005.6 0.0
26/04:00am 28.6 26.7 15.8 45 7.9 S 20 26 11 14 1006.0 1005.4 0.0
26/03:30am 29.0 27.3 16.2 46 8.0 S 20 26 11 14 1005.6 1005.0 0.0
26/03:00am 29.2 27.7 16.7 46 7.9 S 20 24 11 13 1005.6 1005.0 0.0
26/02:30am 29.5 28.1 17.0 47 7.9 S 20 28 11 15 1005.5 1004.9 0.0
26/02:00am 30.0 29.1 18.1 49 7.7 SSW 20 30 11 16 1005.7 1005.1 0.0
26/01:30am 30.2 29.3 19.9 54 6.8 SW 24 30 13 16 1005.6 1005.0 0.0
26/01:00am 30.5 29.9 18.9 50 7.6 SW 20 28 11 15 1005.8 1005.2 0.0
26/12:30am 31.0 29.8 16.2 41 9.3 WSW 17 22 9 12 1005.8 1005.2 0.0
26/12:00am 31.1 30.2 17.8 45 8.6 WSW 19 24 10 13 1006.1 1005.5 0.0
 
Date/Time
WST
Temp
°C
App
Temp
°C
Dew
Point
Rel
Hum
%
Delta-T
°C
Wind Press
QNH
hPa
Press
MSL
hPa
Rain
since 9 am
mm
Dir
 
Spd
km/h
Gust
km/h
Spd
kts
Gust
kts
25/11:30pm 30.5 31.9 20.4 54 6.7 SW 13 15 7 8 1006.5 1005.9 0.0
25/11:00pm 30.7 32.9 21.2 57 6.4 WSW 11 15 6 8 1006.7 1006.1 0.0
25/10:30pm 29.3 31.7 19.6 56 6.3 W 6 9 3 5 1006.8 1006.2 0.0
25/10:00pm 30.2 32.7 19.9 54 6.8 WNW 6 7 3 4 1006.9 1006.3 0.0
25/09:30pm 30.3 31.6 18.4 49 7.7 NW 9 11 5 6 1006.7 1006.1 0.0
25/09:00pm 28.9 28.6 14.3 40 8.8 N 9 9 5 5 1006.2 1005.6 0.0
25/08:30pm 29.3 29.3 14.3 40 9.1 N 7 9 4 5 1005.9 1005.3 0.0
25/08:00pm 29.8 29.7 14.0 38 9.6 NNE 7 9 4 5 1005.5 1004.9 0.0
25/07:30pm 31.1 31.0 13.8 34 10.5 N 7 9 4 5 1005.5 1004.9 0.0
25/07:00pm 32.8 32.7 13.9 31 11.6 N 7 11 4 6 1005.3 1004.7 0.0
25/06:30pm 34.1 34.1 14.1 30 12.3 NNE 7 9 4 5 1004.9 1004.3 0.0
25/06:00pm 35.6 35.3 14.3 28 13.2 NNE 9 15 5 8 1004.5 1003.9 0.0
25/05:30pm 36.7 35.5 14.1 26 14.0 NE 13 19 7 10 1004.3 1003.7 0.0
25/05:00pm 37.7 36.6 14.3 25 14.6 N 13 20 7 11 1004.1 1003.5 0.0
25/04:30pm 37.8 37.1 14.4 25 14.6 NE 11 19 6 10 1004.1 1003.5 0.0
25/04:00pm 37.7 36.2 14.3 25 14.6 NE 15 20 8 11 1004.2 1003.6 0.0
25/03:30pm 38.3 37.3 13.5 23 15.3 NNE 11 20 6 11 1004.3 1003.7 0.0
25/03:00pm 39.0 37.8 14.1 23 15.6 NE 13 24 7 13 1004.6 1004.0 0.0
25/02:30pm 37.8 36.5 13.7 23 14.9 E 13 20 7 11 1005.0 1004.4 0.0
25/02:00pm 38.3 36.9 13.5 23 15.4 E 13 20 7 11 1005.3 1004.7 0.0
25/01:30pm 38.2 37.8 14.1 24 15.0 E 9 19 5 10 1005.8 1005.2 0.0
25/01:00pm 38.9 38.5 14.0 23 15.6 SSE 9 19 5 10 1006.3 1005.7 0.0
25/12:30pm 37.5 37.9 14.7 25 14.3 SE 6 13 3 7 1006.8 1006.2 0.0
25/12:00pm 36.4 36.1 14.4 27 13.7 SSE 9 17 5 9 1007.6 1007.0 0.0
25/11:30am 36.2 36.2 15.3 28 13.2 E 9 17 5 9 1008.3 1007.7 0.0
25/11:00am 34.6 35.0 18.2 37 10.7 ENE 13 20 7 11 1008.8 1008.2 0.0
25/10:30am 34.4 34.6 16.7 34 11.3 NE 11 15 6 8 1009.1 1008.5 0.0
25/10:00am 34.1 34.7 17.8 38 10.6 ENE 11 20 6 11 1009.6 1009.0 0.0
25/09:30am 33.5 33.0 16.8 36 10.6 E 15 20 8 11 1010.0 1009.4 0.0
25/09:00am 32.8 33.3 20.0 47 8.5 ESE 17 30 9 16 1010.4 1009.8 0.0
25/08:30am 32.9 35.9 20.8 49 8.1 W 6 11 3 6 1010.1 1009.5 0.0
25/08:00am 32.2 34.7 21.1 52 7.5 SSE 9 15 5 8 1010.0 1009.4 0.0
25/07:30am 31.4 34.8 22.7 60 6.0 SSW 9 15 5 8 1009.9 1009.3 0.0
25/07:00am 30.9 35.9 22.5 61 5.7 CALM 0 0 0 0 1009.3 1008.7 0.0
25/06:30am 30.7 34.4 22.3 61 5.7 E 6 7 3 4 1009.0 1008.4 0.0
25/06:00am 29.0 32.1 21.0 62 5.3 E 6 9 3 5 1008.8 1008.2 0.0
25/05:30am 28.4 31.0 20.4 62 5.3 E 7 11 4 6 1008.7 1008.1 0.0
25/05:00am 28.1 29.9 19.6 60 5.6 E 9 11 5 6 1008.6 1008.0 0.0
25/04:30am 28.0 29.6 20.0 61 5.2 E 11 15 6 8 1008.1 1007.5 0.0
25/04:00am 27.2 29.0 19.5 62 5.0 E 9 11 5 6 1007.5 1006.9 0.0
25/03:30am 26.9 30.0 19.5 64 4.8 WSW 2 7 1 4 1007.3 1006.7 0.0
25/03:00am 27.1 30.4 19.2 62 5.1 CALM 0 6 0 3 1006.8 1006.2 0.0
25/02:30am 27.7 29.9 19.2 60 5.5 WNW 6 7 3 4 1006.5 1005.9 0.0
25/02:00am 28.8 31.0 19.1 55 6.3 W 6 7 3 4 1006.3 1005.7 0.0
25/01:30am 29.3 31.1 19.6 56 6.3 W 9 13 5 7 1006.1 1005.5 0.0
25/01:00am 29.5 31.3 19.5 55 6.6 W 9 13 5 7 1006.4 1005.8 0.0
25/12:30am 29.8 31.4 19.2 53 6.9 W 9 11 5 6 1006.7 1006.1 0.0
25/12:00am 30.2 31.8 19.2 51 7.2 W 9 13 5 7 1007.2 1006.6 0.0
 
Date/Time
WST
Temp
°C
App
Temp
°C
Dew
Point
Rel
Hum
%
Delta-T
°C
Wind Press
QNH
hPa
Press
MSL
hPa
Rain
since 9 am
mm
Dir
 
Spd
km/h
Gust
km/h
Spd
kts
Gust
kts
24/11:30pm 30.1 32.2 20.1 55 6.6 WNW 9 17 5 9 1007.3 1006.7 0.0
24/11:00pm 30.2 32.4 20.4 55 6.5 WNW 9 15 5 8 1007.6 1007.0 0.0
24/10:30pm 30.2 32.5 20.7 56 6.3 NW 9 11 5 6 1007.8 1007.2 0.0
24/10:00pm 30.5 32.8 20.7 55 6.5 NW 9 11 5 6 1007.9 1007.3 0.0
24/09:30pm 30.5 33.0 21.0 57 6.4 NW 9 13 5 7 1007.9 1007.3 0.0
24/09:00pm 30.5 33.3 21.6 59 6.0 NW 9 13 5 7 1007.8 1007.2 0.0
24/08:30pm 30.7 33.6 21.8 59 6.0 WNW 9 13 5 7 1007.7 1007.1 0.0
24/08:00pm 31.0 33.4 20.9 55 6.8 NW 9 17 5 9 1007.5 1006.9 0.0
24/07:30pm 31.5 33.2 20.1 50 7.6 NNW 11 17 6 9 1007.0 1006.4 0.0
24/07:00pm 32.0 33.0 20.3 50 7.8 NW 15 22 8 12 1006.7 1006.1 0.0
24/06:30pm 32.6 33.9 20.8 49 7.9 NW 15 24 8 13 1006.2 1005.6 0.0
24/06:00pm 33.2 34.3 22.3 52 7.5 NW 20 35 11 19 1005.9 1005.3 0.0
24/05:30pm 33.5 34.8 21.6 49 8.1 NNW 17 30 9 16 1005.6 1005.0 0.0
24/05:00pm 33.5 34.1 21.3 48 8.3 NNW 20 26 11 14 1005.6 1005.0 0.0
24/04:30pm 35.2 34.9 19.6 40 10.4 WNW 20 30 11 16 1005.3 1004.7 0.0
24/04:00pm 36.5 36.7 17.6 32 12.3 NW 13 24 7 13 1005.0 1004.4 0.0
24/03:30pm 38.5 37.3 15.0 25 14.8 W 15 20 8 11 1004.8 1004.2 0.0
24/03:00pm 40.1 39.4 14.3 22 16.3 E 11 19 6 10 1005.0 1004.4 0.0
24/02:30pm 40.7 39.4 14.8 22 16.4 WSW 15 22 8 12 1005.2 1004.6 0.0
24/02:00pm 39.8 38.9 14.8 23 15.9 ESE 13 20 7 11 1005.5 1004.9 0.0

Other Formats:

Comma delimited format used in spreadsheet applications
http://www.bom.gov.au/fwo/IDW60801/IDW60801.94204.axf

JavaScript Object Notation format (JSON) in row-major order
http://www.bom.gov.au/fwo/IDW60801/IDW60801.94204.json